createdAt,value
2023-04-08T00:00:41.028Z,5.03
2023-04-08T00:03:08.064Z,5.15
2023-04-08T00:05:35.173Z,5.65
2023-04-08T00:08:01.983Z,4.45
2023-04-08T00:13:10.715Z,5.72
2023-04-08T00:15:37.820Z,5.80
2023-04-08T00:18:04.679Z,4.95
2023-04-08T00:20:58.134Z,5.18
2023-04-08T00:23:24.966Z,6.80
2023-04-08T00:25:51.676Z,5.30
2023-04-08T00:28:18.673Z,6.38
2023-04-08T00:30:45.843Z,8.57
2023-04-08T00:33:12.646Z,7.10
2023-04-08T00:36:13.990Z,8.07
2023-04-08T00:38:41.157Z,8.23
2023-04-08T00:41:45.703Z,6.97
2023-04-08T00:44:12.410Z,8.80
2023-04-08T00:49:56.384Z,8.45
2023-04-08T00:52:23.091Z,7.40
2023-04-08T00:54:49.779Z,6.53
2023-04-08T00:57:21.912Z,7.93
2023-04-08T00:59:48.581Z,8.45
2023-04-08T01:02:24.754Z,7.05
2023-04-08T01:05:14.097Z,9.13
2023-04-08T01:07:47.288Z,7.05
2023-04-08T01:10:30.144Z,6.20
2023-04-08T01:12:59.747Z,7.03
2023-04-08T01:15:29.110Z,12.88
2023-04-08T01:17:57.581Z,6.85
2023-04-08T01:23:38.130Z,9.82
2023-04-08T01:26:05.435Z,7.85
2023-04-08T01:28:33.966Z,8.15
2023-04-08T01:31:02.289Z,8.18
2023-04-08T01:33:31.630Z,8.27
2023-04-08T01:36:00.657Z,8.85
2023-04-08T01:38:29.266Z,7.38
2023-04-08T01:40:57.222Z,7.30
2023-04-08T01:43:25.929Z,7.82
2023-04-08T01:45:58.867Z,7.28
2023-04-08T01:49:22.986Z,6.53
2023-04-08T01:51:51.777Z,7.05
2023-04-08T01:54:18.534Z,6.63
2023-04-08T02:00:18.625Z,7.20
2023-04-08T02:02:47.349Z,7.10
2023-04-08T02:05:14.899Z,7.60
2023-04-08T02:07:41.620Z,7.10
2023-04-08T02:10:08.791Z,7.32
2023-04-08T02:12:35.664Z,9.65
2023-04-08T02:15:04.451Z,8.57
2023-04-08T02:18:09.583Z,6.72
2023-04-08T02:24:42.957Z,6.18
2023-04-08T02:27:13.430Z,7.18
2023-04-08T02:30:11.521Z,7.55
2023-04-08T02:32:30.426Z,6.47
2023-04-08T02:34:59.605Z,6.95
2023-04-08T02:37:28.059Z,7.30
2023-04-08T02:40:15.344Z,6.63
2023-04-08T02:42:42.131Z,7.53
2023-04-08T02:45:18.357Z,8.23
2023-04-08T02:51:34.163Z,6.60
2023-04-08T02:54:00.898Z,6.28
2023-04-08T02:56:27.829Z,6.40
2023-04-08T02:58:55.205Z,6.75
2023-04-08T03:01:22.115Z,6.57
2023-04-08T03:03:51.372Z,6.28
2023-04-08T03:09:14.609Z,5.72
2023-04-08T03:11:41.271Z,5.93
2023-04-08T03:14:10.596Z,8.73
2023-04-08T03:16:37.336Z,5.72
2023-04-08T03:19:04.113Z,5.60
2023-04-08T03:21:31.836Z,5.50
2023-04-08T03:23:58.568Z,5.95
2023-04-08T03:26:38.977Z,6.35
2023-04-08T03:29:06.834Z,7.55
2023-04-08T03:31:39.886Z,5.20
2023-04-08T03:34:06.746Z,5.50
2023-04-08T03:36:35.135Z,6.03
2023-04-08T03:39:06.407Z,6.18
2023-04-08T03:41:33.403Z,4.70
2023-04-08T03:44:00.334Z,6.53
2023-04-08T03:46:27.353Z,5.38
2023-04-08T03:48:59.448Z,6.70
2023-04-08T03:51:26.201Z,6.25
2023-04-08T03:53:52.933Z,5.70
2023-04-08T03:56:19.850Z,5.47
2023-04-08T03:58:49.168Z,5.90
2023-04-08T04:01:16.405Z,5.97
2023-04-08T04:03:43.370Z,5.13
2023-04-08T04:06:10.254Z,6.40
2023-04-08T04:08:36.938Z,5.35
2023-04-08T04:11:06.414Z,6.90
2023-04-08T04:13:33.092Z,5.03
2023-04-08T04:15:59.812Z,6.32
2023-04-08T04:18:29.206Z,6.80
2023-04-08T04:20:56.097Z,5.05
2023-04-08T04:23:25.058Z,5.68
2023-04-08T04:25:52.232Z,4.72
2023-04-08T04:32:16.334Z,6.00
2023-04-08T04:34:44.374Z,5.30
2023-04-08T04:37:23.104Z,6.82
2023-04-08T04:39:49.762Z,5.30
2023-04-08T04:42:16.651Z,5.30
2023-04-08T04:44:43.485Z,4.90
2023-04-08T04:47:10.243Z,4.68
2023-04-08T04:49:36.982Z,5.25
2023-04-08T04:52:04.912Z,6.00
2023-04-08T04:54:31.580Z,4.90
2023-04-08T04:56:58.286Z,6.88
2023-04-08T04:59:24.973Z,5.38
2023-04-08T05:01:51.665Z,5.25
2023-04-08T05:04:18.363Z,6.15
2023-04-08T05:06:45.344Z,6.97
2023-04-08T05:09:12.095Z,4.35
2023-04-08T05:11:38.895Z,4.60
2023-04-08T05:14:05.637Z,5.50
2023-04-08T05:20:16.418Z,4.32
2023-04-08T05:22:45.375Z,4.15
2023-04-08T05:25:12.332Z,6.20
2023-04-08T05:28:08.926Z,4.78
2023-04-08T05:30:35.733Z,4.63
2023-04-08T05:33:02.489Z,5.30
2023-04-08T05:35:29.330Z,4.97
2023-04-08T05:40:31.727Z,4.68
2023-04-08T05:42:58.701Z,4.88
2023-04-08T05:45:25.633Z,4.60
2023-04-08T05:47:52.414Z,5.72
2023-04-08T05:56:27.454Z,4.88
2023-04-08T05:59:02.010Z,7.03
2023-04-08T06:02:27.715Z,5.95
2023-04-08T06:07:35.353Z,5.25
2023-04-08T06:10:02.486Z,4.28
2023-04-08T06:12:29.502Z,5.18
2023-04-08T06:14:59.401Z,4.60
2023-04-08T06:18:13.152Z,6.20
2023-04-08T06:20:39.812Z,6.70
2023-04-08T06:23:06.960Z,6.43
2023-04-08T06:29:30.229Z,5.97
2023-04-08T06:31:57.083Z,4.97
2023-04-08T06:34:35.813Z,5.15
2023-04-08T06:39:48.215Z,5.07
2023-04-08T06:42:14.877Z,4.78
2023-04-08T06:44:41.610Z,4.72
2023-04-08T06:47:08.386Z,4.82
2023-04-08T06:49:35.368Z,5.28
2023-04-08T06:52:07.061Z,5.20
2023-04-08T06:54:33.791Z,5.20
2023-04-08T06:57:03.116Z,5.60
2023-04-08T06:59:32.631Z,4.22
2023-04-08T07:01:59.426Z,4.55
2023-04-08T07:07:53.891Z,6.57
2023-04-08T07:11:01.155Z,5.28
2023-04-08T07:13:27.856Z,7.05
2023-04-08T07:15:54.550Z,4.85
2023-04-08T07:18:21.813Z,5.35
2023-04-08T07:20:53.850Z,5.45
2023-04-08T07:24:17.107Z,5.30
2023-04-08T07:26:43.809Z,4.15
2023-04-08T07:29:10.910Z,4.78
2023-04-08T07:31:37.622Z,7.32
2023-04-08T07:34:11.478Z,4.47
2023-04-08T07:36:53.384Z,5.60
2023-04-08T07:39:20.064Z,5.95
2023-04-08T07:41:46.873Z,5.10
2023-04-08T07:46:57.616Z,5.95
2023-04-08T07:49:24.254Z,5.13
2023-04-08T07:51:51.627Z,5.13
2023-04-08T07:54:21.362Z,6.43
2023-04-08T07:56:48.266Z,4.80
2023-04-08T07:59:15.476Z,5.03
2023-04-08T08:01:44.738Z,6.10
2023-04-08T08:04:11.770Z,7.03
2023-04-08T08:06:45.023Z,6.57
2023-04-08T08:09:14.925Z,6.20
2023-04-08T08:11:41.879Z,6.47
2023-04-08T08:14:13.862Z,5.88
2023-04-08T08:20:31.568Z,6.22
2023-04-08T08:29:28.413Z,4.80
2023-04-08T08:31:55.178Z,6.00
2023-04-08T08:34:21.992Z,6.60
2023-04-08T08:36:48.730Z,6.97
2023-04-08T08:39:27.448Z,5.55
2023-04-08T08:44:22.789Z,5.15
2023-04-08T08:46:49.774Z,5.90
2023-04-08T08:49:16.565Z,4.85
2023-04-08T08:54:27.911Z,6.32
2023-04-08T08:56:54.734Z,6.38
2023-04-08T08:59:40.027Z,6.57
2023-04-08T09:02:24.481Z,6.05
2023-04-08T09:04:58.802Z,6.75
2023-04-08T09:07:26.916Z,5.05
2023-04-08T09:09:56.064Z,7.28
2023-04-08T09:12:23.664Z,5.25
2023-04-08T09:14:50.735Z,7.72
2023-04-08T09:17:33.346Z,6.30
2023-04-08T09:20:15.349Z,6.18
2023-04-08T09:22:58.336Z,6.22
2023-04-08T09:26:16.456Z,7.28
2023-04-08T09:32:07.482Z,7.68
2023-04-08T09:34:34.741Z,8.18
2023-04-08T09:37:01.417Z,6.07
2023-04-08T09:39:30.666Z,8.43
2023-04-08T09:42:01.352Z,8.20
2023-04-08T09:44:36.760Z,6.60
2023-04-08T09:47:19.136Z,7.97
2023-04-08T09:49:56.865Z,7.53
2023-04-08T09:52:45.554Z,8.98
2023-04-08T09:59:17.493Z,7.18
2023-04-08T10:01:50.399Z,7.43
2023-04-08T10:04:23.209Z,8.32
2023-04-08T10:07:03.474Z,6.15
2023-04-08T10:09:31.086Z,8.45
2023-04-08T10:11:58.038Z,7.32
2023-04-08T10:14:28.754Z,8.02
2023-04-08T10:20:25.956Z,7.65
2023-04-08T10:22:52.846Z,8.18
2023-04-08T10:25:19.797Z,8.55
2023-04-08T10:28:15.497Z,7.70
2023-04-08T10:30:49.528Z,6.85
2023-04-08T10:34:07.710Z,7.90
2023-04-08T10:36:34.545Z,7.03
2023-04-08T10:39:01.341Z,5.70
2023-04-08T10:47:11.305Z,10.60
2023-04-08T10:49:38.256Z,13.25
2023-04-08T10:52:09.182Z,18.42
2023-04-08T10:54:37.381Z,19.08
2023-04-08T10:57:05.196Z,19.50
2023-04-08T10:59:32.921Z,21.70
2023-04-08T11:02:01.248Z,22.85
2023-04-08T11:04:28.461Z,21.60
2023-04-08T11:06:55.364Z,22.38
2023-04-08T11:09:22.076Z,25.05
2023-04-08T11:11:48.790Z,22.58
2023-04-08T11:17:08.972Z,22.58
2023-04-08T11:19:36.947Z,21.67
2023-04-08T11:22:05.410Z,22.05
2023-04-08T11:24:32.173Z,25.15
2023-04-08T11:26:59.313Z,21.10
2023-04-08T11:29:26.258Z,21.75
2023-04-08T11:34:33.792Z,19.63
2023-04-08T11:37:01.650Z,22.70
2023-04-08T11:39:28.748Z,20.33
2023-04-08T11:41:59.561Z,19.63
2023-04-08T11:45:13.362Z,19.92
2023-04-08T11:51:09.200Z,20.58
2023-04-08T11:53:37.815Z,22.80
2023-04-08T11:56:18.469Z,19.73
2023-04-08T11:58:46.096Z,30.27
2023-04-08T12:01:12.873Z,24.92
2023-04-08T12:06:39.493Z,20.08
2023-04-08T12:09:06.400Z,20.02
2023-04-08T12:11:36.014Z,20.75
2023-04-08T12:19:25.227Z,18.67
2023-04-08T12:21:51.986Z,21.55
2023-04-08T12:24:18.700Z,21.13
2023-04-08T12:29:57.709Z,16.55
2023-04-08T12:33:38.605Z,17.15
2023-04-08T12:39:44.594Z,15.20
2023-04-08T12:42:11.561Z,18.50
2023-04-08T12:48:26.491Z,13.60
2023-04-08T12:50:53.497Z,13.95
2023-04-08T12:53:20.195Z,15.98
2023-04-08T12:55:48.717Z,14.63
2023-04-08T12:58:16.889Z,13.10
2023-04-08T13:00:46.714Z,14.57
2023-04-08T13:03:15.858Z,17.00
2023-04-08T13:06:20.332Z,17.77
2023-04-08T13:15:19.509Z,15.38
2023-04-08T13:17:46.467Z,15.98
2023-04-08T13:20:30.453Z,15.73
2023-04-08T13:23:00.925Z,15.00
2023-04-08T13:29:08.688Z,12.05
2023-04-08T13:31:35.553Z,14.93
2023-04-08T13:34:02.345Z,14.70
2023-04-08T13:36:38.556Z,16.48
2023-04-08T13:39:05.365Z,14.05
2023-04-08T13:41:38.159Z,15.82
2023-04-08T13:44:05.662Z,12.07
2023-04-08T13:47:16.406Z,14.38
2023-04-08T13:49:43.205Z,12.07
2023-04-08T13:52:16.118Z,16.73
2023-04-08T13:54:42.918Z,16.00
2023-04-08T13:57:09.682Z,15.63
2023-04-08T13:59:38.851Z,13.43
2023-04-08T14:03:23.646Z,11.82
2023-04-08T14:14:46.285Z,13.23
2023-04-08T14:17:13.105Z,12.60
2023-04-08T14:20:12.346Z,13.02
2023-04-08T14:22:39.111Z,13.55
2023-04-08T14:25:06.187Z,14.85
2023-04-08T14:27:35.803Z,14.45
2023-04-08T14:30:05.773Z,15.93
2023-04-08T14:32:32.515Z,14.80
2023-04-08T14:34:59.191Z,16.98
2023-04-08T14:37:25.923Z,15.20
2023-04-08T14:39:52.607Z,17.52
2023-04-08T14:42:45.634Z,12.43
2023-04-08T14:45:13.323Z,12.85
2023-04-08T14:47:40.242Z,11.65
2023-04-08T14:52:41.669Z,12.18
2023-04-08T14:55:08.673Z,15.77
2023-04-08T14:57:47.946Z,13.02
2023-04-08T15:00:14.959Z,15.32
2023-04-08T15:05:17.241Z,12.30
2023-04-08T15:07:44.044Z,12.18
2023-04-08T15:10:11.184Z,14.00
2023-04-08T15:13:38.470Z,15.13
2023-04-08T15:16:05.868Z,9.77
2023-04-08T15:18:32.566Z,10.73
2023-04-08T15:21:09.009Z,10.55
2023-04-08T15:23:35.907Z,9.98
2023-04-08T15:26:41.092Z,9.05
2023-04-08T15:29:07.969Z,13.10
2023-04-08T15:31:35.361Z,11.07
2023-04-08T15:34:33.194Z,8.68
2023-04-08T15:37:03.175Z,9.93
2023-04-08T15:39:29.855Z,10.07
2023-04-08T15:41:56.661Z,8.18
2023-04-08T15:44:24.546Z,8.75
2023-04-08T15:46:51.288Z,7.40
2023-04-08T15:49:18.010Z,10.43
2023-04-08T15:51:44.763Z,10.30
2023-04-08T15:54:11.863Z,7.82
2023-04-08T15:56:38.646Z,8.00
2023-04-08T15:59:05.684Z,8.35
2023-04-08T16:01:33.287Z,7.25
2023-04-08T16:04:00.799Z,7.57
2023-04-08T16:06:27.777Z,9.48
2023-04-08T16:11:35.965Z,7.75
2023-04-08T16:14:04.872Z,6.70
2023-04-08T16:16:32.876Z,6.05
2023-04-08T16:19:00.190Z,6.15
2023-04-08T16:21:36.070Z,5.88
2023-04-08T16:24:03.377Z,6.78
2023-04-08T16:26:30.037Z,6.50
2023-04-08T16:28:56.832Z,5.05
2023-04-08T16:31:23.949Z,6.38
2023-04-08T16:33:50.899Z,6.65
2023-04-08T16:36:18.854Z,6.25
2023-04-08T16:38:45.716Z,6.65
2023-04-08T16:41:12.397Z,6.55
2023-04-08T16:43:41.888Z,5.35
2023-04-08T16:46:14.286Z,4.85
2023-04-08T16:48:41.957Z,6.32
2023-04-08T16:51:08.688Z,5.13
2023-04-08T16:53:35.848Z,4.50
2023-04-08T16:56:02.691Z,5.78
2023-04-08T16:58:29.379Z,6.28
2023-04-08T17:00:56.678Z,5.72
2023-04-08T17:03:23.469Z,5.50
2023-04-08T17:08:35.046Z,6.30
2023-04-08T17:11:10.407Z,5.15
2023-04-08T17:13:39.119Z,5.18
2023-04-08T17:16:08.872Z,5.00
2023-04-08T17:18:35.971Z,5.05
2023-04-08T17:21:02.793Z,4.53
2023-04-08T17:23:29.500Z,4.22
2023-04-08T17:25:56.993Z,6.35
2023-04-08T17:28:23.724Z,5.32
2023-04-08T17:30:50.557Z,5.15
2023-04-08T17:33:17.489Z,4.95
2023-04-08T17:36:06.631Z,5.40
2023-04-08T17:38:33.616Z,4.90
2023-04-08T17:41:00.478Z,5.28
2023-04-08T17:43:27.318Z,4.95
2023-04-08T17:45:54.296Z,5.78
2023-04-08T17:48:28.657Z,3.90
2023-04-08T17:51:04.918Z,3.88
2023-04-08T17:53:33.185Z,4.85
2023-04-08T17:56:00.464Z,6.68
2023-04-08T17:58:27.357Z,5.65
2023-04-08T18:00:54.122Z,5.22
2023-04-08T18:03:21.568Z,5.15
2023-04-08T18:05:48.598Z,4.65
2023-04-08T18:09:01.789Z,5.03
2023-04-08T18:11:06.403Z,5.80
2023-04-08T18:13:46.153Z,5.40
2023-04-08T18:16:17.361Z,4.60
2023-04-08T18:21:19.862Z,5.30
2023-04-08T18:23:49.725Z,4.63
2023-04-08T18:26:16.892Z,4.82
2023-04-08T18:28:43.696Z,5.68
2023-04-08T18:31:10.599Z,6.57
2023-04-08T18:33:39.309Z,5.32
2023-04-08T18:36:10.459Z,6.45
2023-04-08T18:38:38.093Z,5.53
2023-04-08T18:41:04.946Z,5.60
2023-04-08T18:43:32.385Z,6.38
2023-04-08T18:45:59.605Z,6.95
2023-04-08T18:48:26.616Z,5.07
2023-04-08T18:50:55.451Z,5.50
2023-04-08T18:53:23.189Z,4.80
2023-04-08T18:55:51.239Z,5.60
2023-04-08T18:58:18.297Z,4.30
2023-04-08T19:03:27.384Z,7.68
2023-04-08T19:05:54.154Z,5.82
2023-04-08T19:08:29.978Z,5.07
2023-04-08T19:10:59.895Z,6.28
2023-04-08T19:13:29.805Z,4.93
2023-04-08T19:16:01.866Z,5.22
2023-04-08T19:18:31.938Z,4.10
2023-04-08T19:21:23.287Z,4.43
2023-04-08T19:23:50.553Z,6.57
2023-04-08T19:26:20.497Z,7.13
2023-04-08T19:28:47.225Z,4.53
2023-04-08T19:31:23.691Z,6.65
2023-04-08T19:34:02.562Z,7.72
2023-04-08T19:36:29.292Z,6.03
2023-04-08T19:39:13.656Z,6.15
2023-04-08T19:41:40.863Z,7.32
2023-04-08T19:44:10.573Z,4.97
2023-04-08T19:46:39.849Z,6.75
2023-04-08T19:52:16.438Z,4.75
2023-04-08T19:54:53.076Z,4.43
2023-04-08T19:57:35.629Z,7.32
2023-04-08T20:00:04.483Z,5.57
2023-04-08T20:02:42.082Z,6.72
2023-04-08T20:05:26.203Z,6.05
2023-04-08T20:07:53.168Z,4.43
2023-04-08T20:10:25.533Z,5.95
2023-04-08T20:15:25.148Z,4.95
2023-04-08T20:17:52.995Z,5.28
2023-04-08T20:20:20.229Z,5.28
2023-04-08T20:22:47.117Z,6.03
2023-04-08T20:25:13.927Z,4.72
2023-04-08T20:27:41.431Z,5.82
2023-04-08T20:30:14.224Z,5.43
2023-04-08T20:35:18.969Z,4.95
2023-04-08T20:37:46.342Z,6.80
2023-04-08T20:40:13.409Z,5.70
2023-04-08T20:42:40.537Z,4.28
2023-04-08T20:45:11.672Z,5.05
2023-04-08T20:47:40.991Z,6.07
2023-04-08T20:50:09.024Z,5.45
2023-04-08T20:52:35.845Z,5.03
2023-04-08T20:55:06.483Z,5.75
2023-04-08T20:57:49.989Z,4.93
2023-04-08T21:00:17.345Z,4.88
2023-04-08T21:02:44.935Z,6.30
2023-04-08T21:05:12.133Z,8.20
2023-04-08T21:07:44.208Z,6.20
2023-04-08T21:10:12.574Z,9.90
2023-04-08T21:12:39.362Z,7.40
2023-04-08T21:15:11.688Z,6.70
2023-04-08T21:20:09.085Z,7.97
2023-04-08T21:22:35.954Z,8.82
2023-04-08T21:25:06.243Z,6.28
2023-04-08T21:28:16.917Z,6.18
2023-04-08T21:30:44.125Z,5.60
2023-04-08T21:33:10.893Z,5.75
2023-04-08T21:35:37.787Z,5.15
2023-04-08T21:38:04.499Z,4.35
2023-04-08T21:40:31.278Z,6.90
2023-04-08T21:43:04.302Z,5.22
2023-04-08T21:45:30.986Z,5.53
2023-04-08T21:51:18.346Z,6.15
2023-04-08T21:53:46.005Z,5.95
2023-04-08T21:57:00.006Z,6.22
2023-04-08T21:59:34.876Z,7.78
2023-04-08T22:05:39.707Z,5.13
2023-04-08T22:08:06.399Z,5.78
2023-04-08T22:10:33.177Z,5.60
2023-04-08T22:16:47.755Z,6.57
2023-04-08T22:19:15.472Z,5.15
2023-04-08T22:21:42.242Z,8.68
2023-04-08T22:24:09.051Z,4.38
2023-04-08T22:26:53.374Z,5.05
2023-04-08T22:29:20.339Z,5.65
2023-04-08T22:31:48.119Z,6.70
2023-04-08T22:34:15.197Z,4.60
2023-04-08T22:36:42.334Z,5.22
2023-04-08T22:39:09.004Z,4.40
2023-04-08T22:41:36.152Z,7.25
2023-04-08T22:47:32.635Z,4.25
2023-04-08T22:50:02.496Z,5.32
2023-04-08T22:52:29.220Z,4.28
2023-04-08T22:55:32.881Z,8.23
2023-04-08T22:58:05.917Z,5.18
2023-04-08T23:00:36.256Z,4.90
2023-04-08T23:09:33.663Z,4.10
2023-04-08T23:12:01.301Z,4.65
2023-04-08T23:14:27.981Z,7.22
2023-04-08T23:16:54.628Z,3.92
2023-04-08T23:19:21.315Z,5.38
2023-04-08T23:21:47.966Z,4.70
2023-04-08T23:24:55.193Z,4.72
2023-04-08T23:30:11.214Z,5.65
2023-04-08T23:32:38.092Z,5.55
2023-04-08T23:35:05.390Z,4.60
2023-04-08T23:37:32.184Z,5.25
2023-04-08T23:39:58.886Z,5.45
2023-04-08T23:42:27.284Z,5.47
2023-04-08T23:44:54.797Z,3.40
2023-04-08T23:50:32.819Z,5.65
2023-04-08T23:56:47.297Z,3.65
